Terminal Aerodrome Forecast
Issued by NWS Louisville, KY

Home | Current Version | Previous Version | Text Only | Print | Product List | Glossary On
Versions: 1 2 3 4 5 6 7 8 9 10 11 12 13 14 15 16
000
FTUS43 KLMK 291400 AAA
TAFBWG
TAF AMD
KBWG 291447Z 2915/3012 19012G18KT P6SM VCSH BKN025
     FM291800 20012G17KT P6SM VCTS BKN035CB
     FM300100 18007KT P6SM SCT040 SCT250=

USA.gov is the U.S. government's official web portal to all federal, state and local government web resources and services.